St Cloud Regional Airport
KSTC : now visible

Airfield :











YOU CAN JOIN US ON...

 
LOGIN :

Register | Disclaimer

   EN    FR    IT 

 









Legend :    VFR   Marginal VFR   IFR   Intensive IFR   Very Intensive IFR
Visi :
Ceiling :
>= 8 km
>= 3000ft
5 to 8 km
1000 to 3000 ft
1500m to 5 km
500 to 1000 ft
800 to 1500m
200 to 500 ft
< 800m
< 200 ft
Symbols :   Thunderstorms  Fog  Heavy snow  Heavy precipitations  Wind > 20 kt






- Airport Elevation : 1031 ft
- IATA code : STC


KSTC - St Cloud Regional

CURRENT METAR :
  • 082053Z 01005KT 10SM OVC015 00/M03 A2978 RMK AO2 SLP105 T00001033 55004

EXPIRED METARs :
  • 081953Z 02003KT 10SM OVC014 00/M03 A2978 RMK AO2 SLP104 T00001033
  • 081853Z 35006KT 10SM OVC013 00/M03 A2979 RMK AO2 SLP106 T00001033

TAF KSTC
Valid from the 08 at 18:00 until the 09 at 18:00 UTC


081736Z 0818/0918 35009KT P6SM OVC010
FM090200 03008KT P6SM OVC009
FM090600 01010KT 2SM -SN BR OVC006
FM091400 34012KT 1SM -SN BR OVC006
FM091500 34013G20KT 2SM -SN BLSN BR OVC010
FM091700 33013G20KT 5SM BLSN OVC012



MET'MAP, your aeronautical weather chart ! - Copyright ORBIFLY December 2007 - Disclaimer

ORBIFLY MET'MAP TEAM :

Programming & Development : Alexandra Zaïnal
Concept & original design : Baudouin d'Aumeries
Assistance for programming : Marc-Olivier Méhu
Technical & hardware support : Manuel Goepfert

Contact : metmap@orbifly.com




SOURCES & CREDITS :

   NOAA       Earth
Advisory